Time;durP1;ratioP1;P1;durP2;ratioP2;P2;SDS_P1;SDS_P2;PMS_P1;PMS_P2;Temp;Humidity;BMP_temperature;BMP_pressure;BME280_temperature;BME280_humidity;BME280_pressure;Samples;Min_cycle;Max_cycle;Signal;HPM_P1;HPM_P2
2022/04/09 00:01:50;;;;;;;33.13;14.65;;;;;;;8.47;73.05;97271.41;4937438;29;20063;-78
2022/04/09 00:04:16;;;;;;;30.05;13.93;;;;;;;8.41;73.35;97269.19;4941970;29;20586;-81
2022/04/09 00:06:44;;;;;;;38.90;15.13;;;;;;;8.19;73.84;97276.41;4941530;29;20431;-80
2022/04/09 00:09:10;;;;;;;36.57;15.00;;;;;;;8.32;73.77;97286.34;4951181;28;20500;-81
2022/04/09 00:11:36;;;;;;;33.17;15.30;;;;;;;8.30;74.04;97317.72;4951747;29;20382;-81
2022/04/09 00:14:04;;;;;;;31.45;14.10;;;;;;;8.28;73.79;97293.56;4953762;29;20058;-80
2022/04/09 00:16:30;;;;;;;29.35;14.55;;;;;;;8.19;74.39;97304.41;4935091;29;20090;-80
2022/04/09 00:18:57;;;;;;;27.92;11.32;;;;;;;8.11;74.33;97309.88;4952444;29;20062;-80
2022/04/09 00:21:28;;;;;;;31.70;13.02;;;;;;;8.03;74.71;97295.13;4932156;29;20134;-80
2022/04/09 00:23:54;;;;;;;21.58;8.73;;;;;;;8.07;74.07;97305.06;4954015;28;20047;-79
2022/04/09 00:26:20;;;;;;;22.88;9.40;;;;;;;8.03;73.76;97300.56;4902185;29;20067;-79
2022/04/09 00:28:46;;;;;;;24.80;7.03;;;;;;;7.99;73.43;97305.88;4950671;29;20546;-80
2022/04/09 00:31:13;;;;;;;15.20;5.90;;;;;;;8.03;72.98;97304.09;4911481;29;20473;-80
2022/04/09 00:33:40;;;;;;;16.98;5.22;;;;;;;8.07;73.08;97302.34;4913977;29;20058;-77
2022/04/09 00:36:07;;;;;;;10.48;4.15;;;;;;;8.13;72.32;97308.44;4938659;29;20059;-79
2022/04/09 00:38:33;;;;;;;15.35;4.22;;;;;;;8.07;72.27;97307.78;4951396;28;20055;-84
2022/04/09 00:40:59;;;;;;;9.68;3.22;;;;;;;8.10;71.83;97311.81;4934670;29;20528;-81
2022/04/09 00:43:25;;;;;;;9.57;3.30;;;;;;;8.19;71.29;97322.69;4936497;29;20059;-82
2022/04/09 00:45:52;;;;;;;12.98;3.55;;;;;;;8.14;70.84;97318.19;4966342;28;20063;-79
2022/04/09 00:48:20;;;;;;;12.43;3.40;;;;;;;8.08;70.53;97314.03;4965161;28;20062;-79
2022/04/09 00:50:47;;;;;;;16.77;4.55;;;;;;;8.18;70.41;97329.25;4954328;28;20056;-79
2022/04/09 00:53:15;;;;;;;11.88;3.20;;;;;;;8.15;70.15;97336.13;4945248;29;20047;-80
2022/04/09 00:58:30;;;;;;;13.52;3.75;;;;;;;8.24;69.71;97349.75;4947870;29;20075;-80
2022/04/09 01:00:56;;;;;;;9.93;3.38;;;;;;;8.25;69.23;97339.66;4952717;29;20122;-80
2022/04/09 01:03:23;;;;;;;8.67;3.10;;;;;;;8.27;69.10;97330.03;4955974;28;20563;-80
2022/04/09 01:05:49;;;;;;;14.55;3.80;;;;;;;8.25;69.47;97354.06;4964337;28;20071;-82
2022/04/09 01:08:17;;;;;;;10.48;3.38;;;;;;;8.28;69.26;97342.56;4952356;28;20558;-82
2022/04/09 01:10:46;;;;;;;11.30;3.80;;;;;;;7.99;69.99;97351.31;4968055;28;20531;-82
2022/04/09 01:13:14;;;;;;;11.77;3.30;;;;;;;7.97;69.99;97365.25;4948907;29;20150;-81
2022/04/09 01:15:40;;;;;;;;;;;;;;;7.84;70.26;97349.88;4949593;29;20051;-81
2022/04/09 01:18:07;;;;;;;10.25;3.70;;;;;;;7.63;70.89;97361.31;4952648;29;19926;-83
2022/04/09 01:20:35;;;;;;;9.80;3.83;;;;;;;7.70;70.65;97369.81;4947078;28;20130;-83
2022/04/09 01:23:02;;;;;;;12.75;3.55;;;;;;;7.56;71.02;97388.16;4933996;29;20054;-82
2022/04/09 01:25:29;;;;;;;10.73;2.90;;;;;;;7.42;71.33;97391.78;4937824;29;20423;-82
2022/04/09 01:27:59;;;;;;;8.60;3.15;;;;;;;7.50;71.04;97387.50;4950818;29;20054;-82
2022/04/09 01:30:26;;;;;;;8.77;3.47;;;;;;;7.49;70.86;97391.34;4968066;28;20051;-82
2022/04/09 01:32:52;;;;;;;9.63;3.13;;;;;;;7.42;71.01;97399.16;4948114;28;20077;-83
2022/04/09 01:35:19;;;;;;;9.30;2.97;;;;;;;7.53;70.53;97408.63;4940973;28;20122;-81
2022/04/09 01:37:46;;;;;;;8.35;2.85;;;;;;;7.65;69.88;97408.84;4948652;29;20075;-81
2022/04/09 01:40:13;;;;;;;11.55;2.85;;;;;;;7.78;69.23;97409.84;4951007;29;20047;-82
2022/04/09 01:42:44;;;;;;;8.95;2.92;;;;;;;7.66;69.60;97418.59;4951111;28;20059;-80
2022/04/09 01:45:11;;;;;;;8.68;3.10;;;;;;;7.61;69.17;97402.44;4951052;28;20146;-83
2022/04/09 01:47:42;;;;;;;14.90;4.32;;;;;;;7.37;69.63;97381.06;4939932;23;20086;-79
2022/04/09 01:50:10;;;;;;;9.35;3.80;;;;;;;7.56;69.79;97442.56;4924850;29;20060;-78
2022/04/09 01:52:37;;;;;;;8.73;3.75;;;;;;;7.48;69.92;97441.41;4919039;29;20071;-78
2022/04/09 01:55:04;;;;;;;13.70;5.30;;;;;;;7.28;70.78;97443.53;4934791;29;20055;-79
2022/04/09 01:57:32;;;;;;;9.27;3.75;;;;;;;7.04;71.24;97477.25;4907489;29;20105;-79
2022/04/09 01:59:58;;;;;;;8.55;3.65;;;;;;;7.13;70.88;97471.88;4938124;29;20059;-79
2022/04/09 02:02:25;;;;;;;9.52;3.60;;;;;;;7.13;70.62;97473.81;4922315;29;20197;-81
2022/04/09 02:04:52;;;;;;;14.27;3.70;;;;;;;6.94;70.85;97483.72;4924240;29;20055;-80
2022/04/09 02:07:19;;;;;;;10.02;3.80;;;;;;;6.79;71.70;97489.53;4939914;29;20156;-80
2022/04/09 02:09:46;;;;;;;12.95;3.58;;;;;;;6.89;71.19;97483.88;4907385;29;20061;-81
2022/04/09 02:12:12;;;;;;;10.18;3.47;;;;;;;6.91;70.78;97476.19;4924017;29;20352;-79
2022/04/09 02:14:39;;;;;;;9.63;3.65;;;;;;;7.01;70.46;97505.03;4940253;29;20057;-79
2022/04/09 02:17:05;;;;;;;11.50;3.53;;;;;;;6.99;70.16;97490.16;4924252;29;20405;-79
2022/04/09 02:19:32;;;;;;;8.38;3.47;;;;;;;7.02;69.99;97487.63;4920058;29;20493;-79
2022/04/09 02:21:59;;;;;;;11.70;3.95;;;;;;;7.14;69.57;97495.22;4940374;28;20059;-79
2022/04/09 02:24:25;;;;;;;9.10;3.75;;;;;;;7.17;69.06;97513.63;4922050;29;20052;-80
2022/04/09 02:26:52;;;;;;;13.05;4.07;;;;;;;6.96;69.34;97486.16;4936406;29;20461;-80
2022/04/09 02:29:18;;;;;;;11.27;3.95;;;;;;;7.16;68.56;97492.22;4926512;29;20503;-80
2022/04/09 02:31:45;;;;;;;8.95;3.42;;;;;;;7.21;68.08;97502.94;4926045;29;20059;-81
2022/04/09 02:34:15;;;;;;;12.23;4.00;;;;;;;7.15;68.15;97506.91;4935796;29;20587;-81
2022/04/09 02:36:41;;;;;;;9.18;3.50;;;;;;;7.16;68.09;97501.16;4922208;29;20052;-81
2022/04/09 02:39:07;;;;;;;10.15;4.10;;;;;;;7.14;68.02;97505.31;4933380;29;20051;-81
2022/04/09 02:41:34;;;;;;;11.18;3.72;;;;;;;7.29;67.53;97521.25;4923697;29;20055;-81
2022/04/09 02:44:00;;;;;;;12.10;4.07;;;;;;;7.30;67.40;97509.25;4924310;29;20051;-80
2022/04/09 02:46:27;;;;;;;9.57;3.80;;;;;;;7.33;67.03;97507.81;4917898;29;20440;-79
2022/04/09 02:48:57;;;;;;;11.02;3.80;;;;;;;7.33;67.00;97519.50;4937760;29;20051;-80
2022/04/09 02:51:24;;;;;;;8.80;3.50;;;;;;;7.26;67.27;97516.44;4920636;29;20055;-79
2022/04/09 02:53:50;;;;;;;10.55;4.28;;;;;;;7.14;67.57;97527.84;4922711;29;20580;-79
2022/04/09 02:56:17;;;;;;;9.10;3.85;;;;;;;7.21;67.41;97530.13;4918599;29;20452;-80
2022/04/09 02:58:43;;;;;;;13.83;4.00;;;;;;;7.24;67.25;97524.06;4919643;29;20060;-81
2022/04/09 03:01:10;;;;;;;10.40;3.97;;;;;;;7.26;66.85;97532.75;4918265;29;20067;-80
2022/04/09 03:03:37;;;;;;;15.32;3.97;;;;;;;7.20;66.90;97537.50;4936551;29;20063;-80
2022/04/09 03:06:04;;;;;;;10.23;4.00;;;;;;;7.11;66.74;97531.16;4927278;29;20138;-80
2022/04/09 03:08:30;;;;;;;10.75;4.07;;;;;;;6.94;67.35;97542.69;4938268;29;20538;-80
2022/04/09 03:10:57;;;;;;;11.18;4.25;;;;;;;6.98;67.52;97534.72;4913528;29;20051;-79
2022/04/09 03:13:23;;;;;;;9.77;4.55;;;;;;;6.96;67.40;97543.22;4920775;29;20504;-79
2022/04/09 03:15:50;;;;;;;12.13;4.10;;;;;;;7.04;67.36;97544.41;4917989;29;20067;-82
2022/04/09 03:18:17;;;;;;;10.80;3.70;;;;;;;7.12;66.45;97548.28;4922492;29;20071;-84
2022/04/09 03:20:44;;;;;;;14.15;4.10;;;;;;;7.21;66.37;97546.44;4937078;29;20043;-84
2022/04/09 03:23:12;;;;;;;10.82;4.25;;;;;;;7.08;66.34;97526.34;4941989;29;20071;-83
2022/04/09 03:25:49;;;;;;;16.40;4.50;;;;;;;7.32;65.90;97560.59;4907244;28;20126;-85
2022/04/09 03:28:17;;;;;;;10.32;4.07;;;;;;;7.34;65.89;97555.66;4919115;29;20055;-82
2022/04/09 03:30:44;;;;;;;12.32;4.60;;;;;;;7.31;65.82;97556.25;4918982;29;20066;-82
2022/04/09 03:33:12;;;;;;;11.80;4.15;;;;;;;7.29;65.60;97563.94;4922786;29;20144;-83
2022/04/09 03:35:40;;;;;;;11.82;4.13;;;;;;;7.32;65.51;97568.75;4923214;29;20052;-85
2022/04/09 03:38:09;;;;;;;13.15;4.60;;;;;;;7.16;65.78;97563.66;4909029;29;20083;-87
2022/04/09 03:40:53;;;;;;;9.82;4.43;;;;;;;7.23;65.30;97547.75;4908204;29;20058;-87
2022/04/09 03:43:26;;;;;;;9.95;4.47;;;;;;;7.31;65.06;97575.28;4936330;29;20079;-87
2022/04/09 03:45:52;;;;;;;10.57;4.78;;;;;;;7.26;65.10;97570.81;4927513;28;20491;-85
2022/04/09 03:48:19;;;;;;;13.00;4.80;;;;;;;7.42;64.66;97579.38;4903599;29;20084;-85
2022/04/09 03:50:45;;;;;;;11.43;5.25;;;;;;;7.18;64.73;97580.50;4906582;29;20422;-86
2022/04/09 03:53:19;;;;;;;12.70;4.95;;;;;;;7.20;64.80;97585.59;4928818;29;20106;-87
2022/04/09 03:55:48;;;;;;;15.32;5.13;;;;;;;7.25;64.56;97607.22;4928622;29;20052;-87
2022/04/09 03:58:16;;;;;;;12.00;4.93;;;;;;;7.31;63.99;97605.19;4928828;29;20074;-84
2022/04/09 04:00:43;;;;;;;13.45;5.25;;;;;;;7.41;63.93;97618.56;4925372;28;20071;-84
2022/04/09 04:03:10;;;;;;;11.00;5.05;;;;;;;7.40;63.92;97618.84;4941773;29;20056;-86
2022/04/09 04:05:40;;;;;;;14.43;4.93;;;;;;;7.43;63.75;97618.28;4919337;29;20052;-86
2022/04/09 04:08:08;;;;;;;10.40;4.78;;;;;;;7.51;63.41;97636.56;4942737;29;20142;-86
2022/04/09 04:10:37;;;;;;;17.30;5.65;;;;;;;7.46;63.65;97637.47;4906794;29;20328;-89
2022/04/09 04:13:16;;;;;;;12.05;5.30;;;;;;;7.43;64.01;97648.97;4938597;29;20162;-86
2022/04/09 04:15:42;;;;;;;10.80;4.90;;;;;;;7.47;64.14;97652.66;4925325;29;20554;-87
2022/04/09 04:18:11;;;;;;;12.13;5.78;;;;;;;7.35;64.13;97641.56;4936593;29;20158;-87
2022/04/09 04:20:41;;;;;;;11.05;5.28;;;;;;;7.49;64.00;97661.34;4925876;28;20468;-90
2022/04/09 04:23:08;;;;;;;10.68;4.95;;;;;;;7.55;63.91;97669.38;4928507;29;20051;-87
2022/04/09 04:25:34;;;;;;;20.50;5.68;;;;;;;7.41;63.76;97662.06;4923955;29;20631;-90
2022/04/09 04:28:01;;;;;;;14.50;5.75;;;;;;;7.52;63.91;97678.94;4923592;29;20059;-90
2022/04/09 04:30:28;;;;;;;14.63;5.38;;;;;;;7.55;63.97;97680.25;4911829;29;20055;-90
2022/04/09 04:32:56;;;;;;;13.60;5.20;;;;;;;7.52;63.84;97692.53;4927890;29;20540;-92
2022/04/09 04:35:32;;;;;;;11.70;4.82;;;;;;;7.59;63.56;97695.66;4936105;29;20066;-90
2022/04/09 04:37:58;;;;;;;15.32;5.75;;;;;;;7.58;63.88;97701.41;4917144;29;20206;-91
2022/04/09 04:40:27;;;;;;;14.10;5.38;;;;;;;7.50;64.05;97692.88;4930361;29;20047;-91
2022/04/09 04:42:58;;;;;;;12.48;5.40;;;;;;;7.54;63.73;97690.31;4945194;29;20066;-88
2022/04/09 04:45:26;;;;;;;15.40;5.05;;;;;;;7.54;64.00;97705.84;4906612;29;20444;-85
2022/04/09 04:47:56;;;;;;;14.65;5.28;;;;;;;7.51;64.06;97707.25;4933133;29;20110;-83
2022/04/09 04:50:27;;;;;;;14.25;5.55;;;;;;;7.45;64.05;97701.13;4933116;29;20064;-87
2022/04/09 04:52:54;;;;;;;17.20;5.35;;;;;;;7.46;64.10;97713.59;4928502;29;20051;-87
2022/04/09 04:55:22;;;;;;;13.45;5.35;;;;;;;7.18;64.12;97681.06;4921062;29;20051;-87
2022/04/09 04:57:51;;;;;;;14.20;5.25;;;;;;;7.21;64.38;97685.88;4940909;29;20086;-84
2022/04/09 05:00:25;;;;;;;14.07;6.30;;;;;;;7.36;64.16;97728.22;4931469;29;20083;-80
2022/04/09 05:03:00;;;;;;;13.05;5.43;;;;;;;7.38;64.00;97717.84;4924276;29;20053;-83
2022/04/09 05:05:27;;;;;;;15.35;5.43;;;;;;;7.22;64.51;97735.59;4927611;29;20055;-81
2022/04/09 05:07:55;;;;;;;12.32;4.75;;;;;;;7.19;64.18;97734.31;4938239;29;20063;-83
2022/04/09 05:10:25;;;;;;;12.20;5.78;;;;;;;7.24;64.25;97736.09;4926098;29;20090;-83
2022/04/09 05:12:54;;;;;;;12.60;5.85;;;;;;;7.17;64.31;97750.09;4920084;29;20115;-83
2022/04/09 05:15:22;;;;;;;13.30;5.90;;;;;;;7.18;64.21;97737.31;4904016;29;20432;-82
2022/04/09 05:17:51;;;;;;;14.52;6.90;;;;;;;7.29;63.92;97754.22;4924395;29;20481;-81
2022/04/09 05:20:18;;;;;;;14.57;7.03;;;;;;;7.29;64.63;97768.63;4920862;29;20428;-83
2022/04/09 05:22:47;;;;;;;12.95;6.38;;;;;;;7.26;64.74;97771.13;4941802;29;20071;-86
2022/04/09 05:25:19;;;;;;;11.95;5.70;;;;;;;7.17;65.29;97773.75;4927213;29;20051;-85
2022/04/09 05:27:47;;;;;;;14.25;6.18;;;;;;;7.09;65.43;97773.34;4913350;29;20051;-86
2022/04/09 05:30:24;;;;;;;13.70;6.10;;;;;;;7.24;65.15;97779.59;4914839;29;20056;-87
2022/04/09 05:32:51;;;;;;;14.23;6.10;;;;;;;7.19;65.17;97775.06;4924143;29;20508;-84
2022/04/09 05:35:19;;;;;;;13.40;5.82;;;;;;;7.20;65.07;97776.69;4923715;29;20122;-85
2022/04/09 05:37:51;;;;;;;17.63;6.68;;;;;;;7.42;64.55;97787.97;4939853;29;20147;-83
2022/04/09 05:40:22;;;;;;;12.88;5.63;;;;;;;7.23;65.11;97781.50;4916715;29;20066;-83
2022/04/09 05:42:49;;;;;;;17.10;6.60;;;;;;;7.17;65.57;97803.66;4933796;29;20079;-82
2022/04/09 05:45:17;;;;;;;12.80;5.95;;;;;;;7.18;65.58;97813.41;4924436;29;20154;-82
2022/04/09 05:47:46;;;;;;;14.55;6.30;;;;;;;7.08;66.19;97820.63;4915433;29;20047;-81
2022/04/09 05:50:17;;;;;;;16.55;7.43;;;;;;;7.09;65.94;97826.91;4902267;29;20055;-81
2022/04/09 05:52:45;;;;;;;16.67;6.85;;;;;;;7.18;65.91;97837.88;4924010;29;20455;-77
2022/04/09 05:55:14;;;;;;;18.17;6.53;;;;;;;7.06;66.00;97838.38;4941958;29;20059;-77
2022/04/09 05:57:42;;;;;;;23.83;7.70;;;;;;;7.05;66.34;97850.34;4919447;29;20127;-78
2022/04/09 06:00:10;;;;;;;;;;;;;;;7.07;66.08;97861.72;4917435;29;20531;-76
2022/04/09 06:02:42;;;;;;;13.98;6.95;;;;;;;6.92;65.90;97852.72;4934709;29;19926;-76
2022/04/09 06:05:20;;;;;;;15.32;6.53;;;;;;;7.02;65.90;97862.63;4916640;29;20559;-76
2022/04/09 06:07:50;;;;;;;15.65;6.72;;;;;;;6.95;65.87;97882.03;4930480;29;20062;-77
2022/04/09 06:10:17;;;;;;;17.17;7.13;;;;;;;6.85;65.95;97895.75;4931579;29;20082;-77
2022/04/09 06:12:44;;;;;;;14.90;6.80;;;;;;;6.70;66.24;97880.53;4932852;29;20576;-75
2022/04/09 06:15:16;;;;;;;18.77;7.03;;;;;;;6.85;65.68;97886.81;4917606;29;20122;-75
2022/04/09 06:17:48;;;;;;;15.93;6.68;;;;;;;7.02;65.39;97895.22;4916584;29;20071;-76
2022/04/09 06:20:16;;;;;;;16.05;6.35;;;;;;;7.10;64.93;97899.16;4934330;29;20539;-75
2022/04/09 06:22:43;;;;;;;15.23;6.47;;;;;;;6.94;65.09;97904.84;4934291;28;20062;-75
2022/04/09 06:25:12;;;;;;;;;;;;;;;6.93;65.38;97916.00;4916812;29;20047;-76
2022/04/09 06:27:39;;;;;;;15.18;5.93;;;;;;;6.90;65.16;97895.69;4931097;28;20025;-76
2022/04/09 06:30:07;;;;;;;13.88;6.25;;;;;;;7.08;64.71;97904.09;4914379;29;20122;-76
2022/04/09 06:32:36;;;;;;;15.15;6.72;;;;;;;7.03;64.79;97913.13;4914308;29;20067;-76
2022/04/09 06:35:03;;;;;;;21.95;6.82;;;;;;;6.93;65.13;97916.00;4918116;29;20063;-77
2022/04/09 06:37:30;;;;;;;13.55;6.75;;;;;;;6.58;65.38;97897.28;4920467;29;20146;-78
2022/04/09 06:39:56;;;;;;;28.13;11.57;;;;;;;6.78;65.31;97915.16;4896382;29;20147;-75
2022/04/09 06:42:27;;;;;;;19.13;8.45;;;;;;;6.86;65.02;97921.03;4914593;29;20503;-75
2022/04/09 06:45:08;;;;;;;20.30;7.57;;;;;;;6.88;64.89;97927.78;4913792;29;20055;-74
2022/04/09 06:47:54;;;;;;;35.35;7.80;;;;;;;6.86;65.03;97929.97;4937763;29;20082;-76
2022/04/09 06:50:21;;;;;;;17.60;5.97;;;;;;;6.93;64.74;97930.41;4929829;29;20146;-76
2022/04/09 06:52:47;;;;;;;17.25;7.90;;;;;;;6.87;64.87;97933.50;4928111;29;20111;-76
2022/04/09 06:55:20;;;;;;;18.42;7.05;;;;;;;6.88;65.27;97944.09;4933007;29;20122;-75
2022/04/09 06:57:49;;;;;;;19.17;7.07;;;;;;;6.64;65.70;97952.34;4897522;29;20052;-76
2022/04/09 07:00:24;;;;;;;17.80;7.90;;;;;;;6.69;65.68;97954.97;4922874;29;20048;-76
2022/04/09 07:02:51;;;;;;;16.55;7.15;;;;;;;6.83;65.28;97951.50;4910990;29;20521;-77
2022/04/09 07:05:17;;;;;;;22.13;6.93;;;;;;;6.88;64.80;97946.00;4917318;29;20060;-78
2022/04/09 07:07:48;;;;;;;18.88;8.00;;;;;;;6.98;64.77;97964.03;4926592;29;20051;-77
2022/04/09 07:10:15;;;;;;;15.40;7.38;;;;;;;7.01;64.71;97949.84;4914589;29;20056;-77
2022/04/09 07:12:42;;;;;;;16.23;6.70;;;;;;;7.05;64.46;97961.78;4930706;29;20055;-75
2022/04/09 07:15:10;;;;;;;19.98;7.50;;;;;;;6.98;64.83;97964.88;4928208;29;20063;-77
2022/04/09 07:17:37;;;;;;;15.77;7.35;;;;;;;7.07;64.54;97968.50;4915443;29;20060;-78
2022/04/09 07:20:04;;;;;;;;;;;;;;;7.18;64.22;97984.66;4930082;29;20060;-77
2022/04/09 07:22:32;;;;;;;19.23;7.50;;;;;;;7.16;64.23;97984.16;4915990;29;19933;-77
2022/04/09 07:24:59;;;;;;;16.98;7.38;;;;;;;7.17;64.16;97994.72;4928278;29;20052;-77
2022/04/09 07:27:35;;;;;;;19.27;8.00;;;;;;;7.03;64.62;98000.09;4936299;29;20071;-78
2022/04/09 07:30:01;;;;;;;16.27;7.25;;;;;;;7.07;64.42;98020.13;4917372;29;20052;-77
2022/04/09 07:32:29;;;;;;;13.68;7.10;;;;;;;7.03;64.85;98013.69;4933890;29;20547;-77
2022/04/09 07:34:56;;;;;;;18.23;7.53;;;;;;;6.99;64.78;98007.22;4934709;29;20048;-78
2022/04/09 07:37:23;;;;;;;16.83;7.55;;;;;;;7.05;64.88;98016.91;4912935;29;20065;-78
2022/04/09 07:39:49;;;;;;;25.05;7.55;;;;;;;7.22;64.40;98023.72;4935391;29;20497;-77
2022/04/09 07:42:15;;;;;;;20.52;8.05;;;;;;;7.24;64.38;98038.66;4917350;29;20138;-77
2022/04/09 07:44:42;;;;;;;15.55;7.72;;;;;;;7.15;64.61;98037.69;4934175;29;20065;-77
2022/04/09 07:47:08;;;;;;;23.27;8.23;;;;;;;7.12;64.83;98040.22;4931982;29;20079;-78
2022/04/09 07:49:35;;;;;;;19.00;7.72;;;;;;;7.19;64.42;98041.47;4915233;29;20051;-78
2022/04/09 07:52:04;;;;;;;19.85;6.85;;;;;;;7.05;64.83;98035.16;4935399;29;20048;-78
2022/04/09 07:54:31;;;;;;;26.52;7.72;;;;;;;7.16;64.56;98049.38;4941039;29;20520;-78
2022/04/09 07:56:57;;;;;;;18.50;7.40;;;;;;;7.23;64.50;98058.78;4924503;29;20052;-79
2022/04/09 07:59:23;;;;;;;16.55;7.50;;;;;;;7.21;64.37;98062.88;4919101;29;20123;-78
2022/04/09 08:01:50;;;;;;;16.15;7.25;;;;;;;7.17;64.29;98067.31;4937854;29;20167;-79
2022/04/09 08:04:16;;;;;;;18.13;8.00;;;;;;;7.15;64.62;98064.06;4936317;29;20159;-78
2022/04/09 08:06:42;;;;;;;26.02;8.68;;;;;;;7.08;64.73;98059.81;4915607;29;20615;-78
2022/04/09 08:09:09;;;;;;;19.85;7.53;;;;;;;7.07;64.71;98046.53;4933823;29;20108;-79
2022/04/09 08:11:35;;;;;;;17.65;7.88;;;;;;;7.23;64.44;98068.84;4915505;29;20568;-78
2022/04/09 08:14:01;;;;;;;16.35;7.47;;;;;;;7.24;64.19;98062.28;4919158;29;20456;-77
2022/04/09 08:16:27;;;;;;;15.18;6.63;;;;;;;7.29;64.06;98066.84;4915610;29;20070;-79
2022/04/09 08:18:53;;;;;;;21.60;7.68;;;;;;;7.34;64.02;98062.16;4917673;29;20051;-79
2022/04/09 08:21:20;;;;;;;15.80;6.88;;;;;;;7.26;64.20;98075.59;4934803;29;20056;-79
2022/04/09 08:23:47;;;;;;;18.13;7.40;;;;;;;7.23;64.26;98077.00;4934861;29;20107;-78
2022/04/09 08:26:13;;;;;;;16.27;6.93;;;;;;;7.26;64.21;98081.03;4917261;29;20499;-77
2022/04/09 08:28:40;;;;;;;18.75;6.63;;;;;;;7.40;63.87;98083.81;4899830;29;20115;-78
2022/04/09 08:31:06;;;;;;;16.83;7.13;;;;;;;7.44;63.52;98082.94;4917704;29;20064;-77
2022/04/09 08:33:33;;;;;;;20.40;7.53;;;;;;;7.47;63.38;98082.31;4900743;29;20051;-77
2022/04/09 08:36:01;;;;;;;15.35;7.05;;;;;;;7.37;63.45;98093.38;4933944;29;20062;-78
2022/04/09 08:38:28;;;;;;;16.08;8.30;;;;;;;7.33;63.46;98093.16;4902937;29;20600;-77
2022/04/09 08:40:55;;;;;;;18.00;7.13;;;;;;;7.32;63.66;98099.69;4931460;29;20064;-78
2022/04/09 08:43:22;;;;;;;18.10;6.78;;;;;;;7.28;63.55;98095.13;4922990;29;20056;-78
2022/04/09 08:45:49;;;;;;;17.02;6.60;;;;;;;7.32;63.37;98090.72;4910434;29;20443;-80
2022/04/09 08:48:17;;;;;;;20.15;7.75;;;;;;;7.34;63.23;98088.53;4933541;29;20520;-79
2022/04/09 08:50:43;;;;;;;;;;;;;;;7.26;63.63;98094.63;4922170;28;20071;-79
2022/04/09 08:53:09;;;;;;;20.65;7.55;;;;;;;7.34;63.28;98085.81;4923397;29;20009;-79
2022/04/09 08:55:36;;;;;;;14.02;6.90;;;;;;;7.31;63.29;98094.53;4935850;29;20079;-80
2022/04/09 08:58:04;;;;;;;18.42;7.20;;;;;;;7.36;63.10;98089.84;4937577;29;21050;-80
2022/04/09 09:00:31;;;;;;;16.20;7.00;;;;;;;7.47;62.96;98086.97;4940917;29;20094;-79
2022/04/09 09:02:59;;;;;;;17.40;7.32;;;;;;;7.29;63.13;98080.44;4937328;29;20060;-78
2022/04/09 09:05:31;;;;;;;16.45;6.28;;;;;;;7.40;62.83;98098.22;4944393;29;20516;-80
2022/04/09 09:07:57;;;;;;;12.93;6.53;;;;;;;7.49;62.51;98104.63;4942949;29;20154;-77
2022/04/09 09:10:23;;;;;;;16.75;6.60;;;;;;;7.46;62.83;98109.84;4931921;29;20060;-78
2022/04/09 09:12:58;;;;;;;18.38;7.25;;;;;;;7.47;63.01;98103.28;4928807;29;20095;-80
2022/04/09 09:15:25;;;;;;;19.40;5.97;;;;;;;7.57;62.84;98103.16;4909318;29;20063;-77
2022/04/09 09:17:55;;;;;;;20.13;7.85;;;;;;;7.53;62.50;98093.94;4931759;29;20484;-78
2022/04/09 09:20:21;;;;;;;14.27;6.05;;;;;;;7.59;62.22;98105.56;4899378;29;20438;-79
2022/04/09 09:22:49;;;;;;;12.23;5.32;;;;;;;7.66;62.07;98106.00;4923562;29;20150;-74
2022/04/09 09:25:15;;;;;;;16.30;6.10;;;;;;;7.72;62.20;98107.50;4936266;29;20610;-75
2022/04/09 09:27:41;;;;;;;17.17;7.38;;;;;;;7.70;62.12;98120.63;4937764;29;20105;-75
2022/04/09 09:30:09;;;;;;;16.60;5.85;;;;;;;7.74;62.18;98121.63;4933408;29;20060;-75
2022/04/09 09:32:38;;;;;;;;;;;;;;;7.84;61.81;98120.66;4943107;29;20079;-91
2022/04/09 09:35:05;;;;;;;22.08;5.80;;;;;;;7.90;61.49;98121.38;4931897;29;19958;-73
2022/04/09 09:37:31;;;;;;;15.25;6.25;;;;;;;7.94;61.54;98111.50;4927431;29;20052;-74
2022/04/09 09:39:57;;;;;;;13.30;5.70;;;;;;;7.97;61.06;98118.25;4934703;29;20122;-73
2022/04/09 09:42:28;;;;;;;14.52;5.93;;;;;;;8.01;61.06;98105.66;4937635;29;20971;-75
2022/04/09 09:44:54;;;;;;;26.10;6.25;;;;;;;8.14;60.87;98117.72;4935261;29;20087;-75
2022/04/09 09:47:20;;;;;;;17.58;5.65;;;;;;;8.26;60.10;98106.31;4941895;28;20524;-74
2022/04/09 09:49:59;;;;;;;14.15;6.10;;;;;;;8.16;60.06;98097.22;4940992;29;20142;-74
2022/04/09 09:52:27;;;;;;;17.08;5.38;;;;;;;8.40;59.83;98109.06;4941044;29;20047;-75
2022/04/09 09:55:00;;;;;;;20.15;5.45;;;;;;;8.42;59.63;98099.47;4942247;29;20071;-75
2022/04/09 09:57:28;;;;;;;11.75;5.30;;;;;;;8.53;59.29;98091.16;4942095;29;20520;-76
2022/04/09 09:59:55;;;;;;;;;;;;;;;8.69;59.05;98100.63;4937260;29;20066;-76
2022/04/09 10:02:22;;;;;;;12.20;5.10;;;;;;;8.84;58.68;98090.53;4934847;29;19926;-75
2022/04/09 10:04:51;;;;;;;13.70;5.05;;;;;;;8.89;58.36;98071.31;4944550;29;21018;-83
2022/04/09 10:07:17;;;;;;;17.05;5.28;;;;;;;8.97;57.85;98078.75;4930294;29;20188;-81
2022/04/09 10:09:44;;;;;;;11.38;4.38;;;;;;;9.29;56.72;98109.72;4930311;29;20236;-81
2022/04/09 10:12:13;;;;;;;14.38;5.60;;;;;;;9.50;56.04;98092.84;4932558;29;20147;-80
2022/04/09 10:14:40;;;;;;;10.80;5.00;;;;;;;9.82;55.60;98106.56;4918054;29;21012;-80
2022/04/09 10:17:07;;;;;;;12.88;5.55;;;;;;;9.91;55.06;98105.50;4938390;29;20126;-81
2022/04/09 10:19:39;;;;;;;10.98;4.43;;;;;;;10.12;54.88;98102.25;4923936;29;20051;-79
2022/04/09 10:22:06;;;;;;;12.27;4.90;;;;;;;10.10;54.60;98107.22;4932608;29;20535;-73
2022/04/09 10:24:33;;;;;;;15.35;4.53;;;;;;;10.17;54.40;98110.28;4930623;29;20119;-72
2022/04/09 10:27:02;;;;;;;11.60;4.28;;;;;;;10.21;54.02;98108.53;4937997;29;20044;-70
2022/04/09 10:29:46;;;;;;;15.57;4.72;;;;;;;10.44;53.32;98099.50;4936121;29;20060;-70
2022/04/09 10:32:32;;;;;;;12.05;5.57;;;;;;;10.60;53.04;98095.22;4934284;29;20086;-68
2022/04/09 10:34:59;;;;;;;10.40;4.40;;;;;;;10.84;52.40;98104.13;4915235;29;20047;-69
2022/04/09 10:37:26;;;;;;;12.32;4.30;;;;;;;11.01;51.78;98104.19;4942053;29;20083;-69
2022/04/09 10:39:53;;;;;;;12.55;4.70;;;;;;;11.20;51.56;98083.94;4940326;29;20138;-69
2022/04/09 10:42:48;;;;;;;8.75;3.75;;;;;;;11.52;51.21;98084.59;4939125;28;20231;-68
2022/04/09 10:45:15;;;;;;;10.35;4.65;;;;;;;11.61;50.75;98074.41;4931330;29;20055;-69
2022/04/09 10:48:08;;;;;;;12.37;4.37;;;;;;;11.82;50.01;98081.16;4936928;29;20480;-70
2022/04/09 10:50:54;;;;;;;9.98;4.22;;;;;;;12.01;49.63;98078.06;4940248;29;20319;-69
2022/04/09 10:53:23;;;;;;;22.02;6.05;;;;;;;12.08;49.89;98063.91;4935426;29;20059;-70
2022/04/09 10:56:15;;;;;;;13.80;6.47;;;;;;;12.42;49.28;98082.16;4937933;29;20301;-69
2022/04/09 10:59:41;;;;;;;10.65;5.10;;;;;;;12.71;48.23;98079.75;4928211;29;20056;-69
2022/04/09 11:02:09;;;;;;;11.95;4.18;;;;;;;12.83;48.15;98081.78;4829256;29;20177;-69
2022/04/09 11:04:42;;;;;;;10.98;4.25;;;;;;;12.88;47.56;98092.56;4878308;29;20067;-69
2022/04/09 11:07:10;;;;;;;12.77;4.97;;;;;;;12.70;47.91;98092.66;4916718;29;20063;-71
2022/04/09 11:09:49;;;;;;;8.90;4.30;;;;;;;12.67;47.73;98100.75;4929213;29;20060;-71
2022/04/09 11:12:18;;;;;;;11.57;3.65;;;;;;;12.73;47.40;98096.66;4932601;29;20060;-70
2022/04/09 11:14:47;;;;;;;15.63;3.85;;;;;;;12.91;47.05;98098.19;4934413;29;20063;-71
2022/04/09 11:17:15;;;;;;;14.30;3.65;;;;;;;13.16;46.43;98090.13;4935621;29;20110;-71
2022/04/09 11:19:42;;;;;;;8.57;3.40;;;;;;;13.44;46.38;98103.34;4933265;29;20139;-70
2022/04/09 11:22:09;;;;;;;13.25;3.92;;;;;;;13.72;46.00;98101.97;4932452;29;20107;-71
2022/04/09 11:24:36;;;;;;;12.48;3.72;;;;;;;14.04;45.51;98100.34;4927978;29;20048;-72
2022/04/09 11:27:03;;;;;;;9.25;3.33;;;;;;;14.19;45.27;98092.59;4935637;29;20059;-70
2022/04/09 11:29:33;;;;;;;10.70;3.70;;;;;;;14.02;45.21;98102.63;4936779;29;20056;-73
2022/04/09 11:32:00;;;;;;;15.73;4.93;;;;;;;13.70;45.46;98107.78;4939625;28;20063;-72
2022/04/09 11:34:26;;;;;;;11.80;4.22;;;;;;;13.70;44.38;98102.31;4941947;29;20067;-73
2022/04/09 11:37:08;;;;;;;13.43;4.33;;;;;;;14.03;43.33;98089.72;4934480;29;20052;-72
2022/04/09 11:39:38;;;;;;;11.55;3.42;;;;;;;14.51;43.01;98103.06;4934255;29;20095;-73
2022/04/09 11:42:07;;;;;;;9.23;3.30;;;;;;;14.54;43.36;98110.63;4933343;28;20442;-71
2022/04/09 11:44:33;;;;;;;7.82;3.08;;;;;;;14.31;43.59;98105.59;4917945;29;20067;-71